METAR Data
IDs: Format: Raw Decoded Include TAF

Data at: 0236 UTC 25 Jan 2020

PABA 250152Z AUTO 27015KT 6SM -SN OVC048 M24/M27 A3029 RMK AO2 SLP244 P0000 T12391267 FZRANO TSNO
PABA 250052Z AUTO 27015KT 6SM -SN OVC050 M24/M27 A3029 RMK AO2 SLP244 P0000 T12391267 FZRANO TSNO
PABA 242352Z AUTO 27015KT 5SM -SN OVC050 M24/M27 A3030 RMK AO2 SNB13 SLP246 P0000 60000 T12391267 11239 21261 53000 FZRANO TSNO
PABA 242329Z AUTO 27016KT 4SM -SN OVC050 M24/M27 A3030 RMK AO2 SNB13 P0000 FZRANO TSNO
PABA 242326Z AUTO 27016KT 2 1/2SM -SN OVC050 M24/M27 A3030 RMK AO2 SNB13 P0000 FZRANO TSNO
PABA 242322Z AUTO 27015KT 1 3/4SM -SN OVC050 M24/M27 A3030 RMK AO2 SNB13 P0000 FZRANO TSNO
PABA 242319Z AUTO 27014KT 2SM -SN OVC050 M24/M27 A3030 RMK AO2 SNB13 P0000 FZRANO TSNO
PABA 242252Z AUTO 27015KT 6SM BR OVC050 M24/M27 A3030 RMK AO2 SNE46 SLP245 P0000 T12441267 FZRANO TSNO
PABA 242152Z AUTO 27017KT 5SM -SN FEW018 OVC055 M24/M27 A3030 RMK AO2 SNB41 SLP244 P0000 T12391267 FZRANO TSNO
PABA 242052Z AUTO 27014KT 5SM HZ FEW015 OVC055 M24/M27 A3030 RMK AO2 SLP246 T12441272 52006 FZRANO TSNO
PABA 242033Z AUTO 27017KT 4SM HZ SCT015 OVC055 M24/M27 A3030 RMK AO2 FZRANO TSNO
PABA 242009Z AUTO 27015KT 4SM HZ OVC011 M25/M28 A3029 RMK AO2 FZRANO TSNO
PABA 241952Z AUTO 26016KT 4SM HZ BKN009 OVC070 M26/M28 A3029 RMK AO2 CIG 007V011 SLP243 T12561283 FZRANO TSNO
PABA 241942Z AUTO 26015KT 6SM HZ BKN009 BKN016 OVC070 M26/M28 A3030 RMK AO2 FZRANO TSNO
PABA 241939Z AUTO 26014KT 6SM HZ SCT007 BKN016 OVC070 M26/M28 A3030 RMK AO2 FZRANO TSNO
PABA 241929Z AUTO 26014KT 5SM HZ FEW007 OVC070 M26/M28 A3029 RMK AO2 FZRANO TSNO
PABA 241852Z AUTO 27015KT 4SM HZ CLR M26/M29 A3029 RMK AO2 SLP242 T12611289 FZRANO TSNO
PABA 241752Z AUTO 27015KT 6SM HZ CLR M26/M29 A3028 RMK AO2 SNE1656 SLP240 P0000 60000 T12611289 11233 21261 51004 FZRANO TSNO
PABA 241652Z AUTO 27014KT 5SM -SN SCT009 M26/M28 A3028 RMK AO2 SNB46 SLP239 P0000 T12561283 FZRANO TSNO
PABA 241609Z AUTO 27014KT 3SM HZ OVC007 M25/M28 A3027 RMK AO2 FZRANO TSNO
PABA 241552Z AUTO 27015KT 2 1/2SM BR OVC005 M26/M28 A3027 RMK AO2 SNE1457 CIG 003V007 SLP235 P0000 T12561278 FZRANO TSNO
PABA 241534Z AUTO 27016KT 2SM BR BKN005 OVC010 M26/M28 A3027 RMK AO2 SNE1457 P0000 FZRANO TSNO
PABA 241526Z AUTO 27016KT 2SM HZ FEW005 OVC010 M25/M28 A3026 RMK AO2 SNE1457 P0000 FZRANO TSNO
PABA 241518Z AUTO 27016KT 2SM HZ BKN010 M25/M28 A3026 RMK AO2 SNE1457 P0000 FZRANO TSNO
PABA 241515Z AUTO 27016KT 1 3/4SM HZ BKN010 M25/M28 A3027 RMK AO2 SNE1457 P0000 FZRANO TSNO
PABA 241508Z AUTO 27017KT 2 1/2SM BR FEW005 BKN010 M26/M28 A3026 RMK AO2 SNE1457 P0000 FZRANO TSNO
PABA 241454Z AUTO 27015KT 3SM -SN BR SCT005 BKN012 M26/M28 A3026 RMK AO2 P0000 FZRANO TSNO
PABA 241452Z AUTO 27016KT 2 1/2SM -SN BR BKN005 M26/M28 A3026 RMK AO2 SNB42 CIG 002V007 SLP234 P0000 60000 T12561278 51003 FZRANO TSNO
PABA 241447Z AUTO 27015KT 2SM -SN BR BKN005 M26/M28 A3027 RMK AO2 SNB42 CIG 002V007 P0000 FZRANO TSNO
PABA 241443Z AUTO 27015KT 2SM -SN BR SCT005 M26/M28 A3027 RMK AO2 SNB42 P0000 FZRANO TSNO
PABA 241438Z AUTO 27015KT 1 3/4SM BR SCT005 M26/M28 A3027 RMK AO2 FZRANO TSNO
PABA 241431Z AUTO 27016KT 2 1/2SM BR FEW003 M26/M28 A3027 RMK AO2 FZRANO TSNO
PABA 241427Z AUTO 27016KT 3SM BR FEW003 M26/M28 A3027 RMK AO2 FZRANO TSNO
PABA 241415Z AUTO 27016KT 2 1/2SM BR FEW003 M26/M28 A3027 RMK AO2 FZRANO TSNO
PABA 241411Z AUTO 27016KT 2 1/2SM BR CLR M26/M28 A3026 RMK AO2 FZRANO TSNO
PABA 241352Z AUTO 27015KT 5SM HZ CLR M25/M28 A3026 RMK AO2 SLP234 T12501278 FZRANO TSNO
PABA 241323Z AUTO 28012KT 3SM BR SCT010 M25/M27 A3027 RMK AO2 FZRANO TSNO
PABA 241252Z AUTO 29015KT 6SM BR OVC010 M24/M27 A3026 RMK AO2 SLP233 T12441267 FZRANO TSNO
PABA 241202Z AUTO 28017KT 4SM HZ OVC010 M23/M26 A3025 RMK AO2 FZRANO TSNO
PABA 241155Z AUTO 28013KT 2SM HZ OVC010 M23/M26 A3026 RMK AO2 FZRANO TSNO
PABA 241152Z AUTO 27014KT 1 3/4SM HZ OVC010 M23/M26 A3025 RMK AO2 SLP230 T12331261 11228 21233 51014 FZRANO TSNO
PABA 241147Z AUTO 28015KT 2SM HZ OVC010 M23/M26 A3025 RMK AO2 FZRANO TSNO
PABA 241125Z AUTO 28014KT 3SM HZ OVC010 M23/M26 A3025 RMK AO2 FZRANO TSNO
PABA 241052Z AUTO 29016KT 2 1/2SM HZ BKN010 OVC019 M23/M26 A3025 RMK AO2 SLP228 T12331261 FZRANO TSNO
PABA 241046Z AUTO 29016KT 2 1/2SM HZ BKN010 OVC019 M23/M26 A3025 RMK AO2 VIS 2V4 FZRANO TSNO
PABA 241010Z AUTO 29017KT 9SM BKN010 OVC016 M23/M26 A3023 RMK AO2 FZRANO TSNO
PABA 240952Z AUTO 29015KT 9SM OVC016 M23/M26 A3023 RMK AO2 SLP222 T12331261 FZRANO TSNO
PABA 240936Z AUTO 28015KT 5SM HZ FEW003 SCT011 OVC016 M23/M26 A3022 RMK AO2 FZRANO TSNO
PABA 240929Z AUTO 28015KT 3SM HZ FEW003 BKN011 OVC016 M23/M26 A3022 RMK AO2 CIG 008V013 FZRANO TSNO
PABA 240917Z AUTO 28016KT 2 1/2SM HZ FEW005 BKN011 OVC014 M23/M26 A3022 RMK AO2 FZRANO TSNO
PABA 240852Z AUTO 28015KT 3SM HZ OVC011 M23/M26 A3021 RMK AO2 SLP217 T12331261 411831233 53014 FZRANO TSNO
PABA 240804Z AUTO 29015KT 3SM BR BKN011 OVC015 M23/M26 A3020 RMK AO2 FZRANO TSNO
PABA 240752Z AUTO 28017KT 5SM BR OVC015 M23/M26 A3020 RMK AO2 SLP212 T12331256 FZRANO TSNO
PABA 240734Z AUTO 28017KT 4SM HZ OVC015 M23/M26 A3019 RMK AO2 FZRANO TSNO
PABA 240705Z AUTO 29018KT 3SM BR OVC013 M23/M25 A3019 RMK AO2 FZRANO TSNO
PABA 240701Z AUTO 29017KT 2 1/2SM BR OVC011 M23/M25 A3019 RMK AO2 FZRANO TSNO
PABA 240652Z AUTO 29019KT 3SM BR OVC013 M23/M25 A3018 RMK AO2 SLP206 T12281250 FZRANO TSNO
PABA 240640Z AUTO 29016KT 4SM BR OVC013 M23/M25 A3018 RMK AO2 FZRANO TSNO
PABA 240609Z AUTO 29020KT 5SM BR OVC015 M23/M25 A3017 RMK AO2 FZRANO TSNO
PABA 240552Z AUTO 29020KT 5SM BR OVC012 M23/M25 A3017 RMK AO2 SLP203 60000 T12281250 11200 21228 51018 FZRANO TSNO
PABA 240452Z AUTO 28021KT 5SM HZ OVC012 M22/M25 A3015 RMK AO2 SLP197 T12221250 FZRANO TSNO
PABA 240407Z AUTO 28021KT 5SM BR OVC014 M22/M24 A3014 RMK AO2 FZRANO TSNO
PABA 240352Z AUTO 27016KT 10SM OVC016 M22/M24 A3014 RMK AO2 PK WND 27027/0313 SLP191 T12171239 FZRANO TSNO
PABA 240335Z AUTO 28019KT 7SM SCT011 OVC018 M21/M24 A3013 RMK AO2 PK WND 27027/0313 FZRANO TSNO
PABA 240252Z AUTO 27020KT 6SM HZ OVC013 M20/M23 A3012 RMK AO2 SNE09 SLP184 P0000 60000 T12001228 53013 FZRANO TSNO
PABA 240244Z AUTO 27019KT 3SM BR OVC013 M20/M22 A3011 RMK AO2 SNE09 P0000 FZRANO TSNO
PABA 240237Z AUTO 27021KT 2 1/2SM BR OVC013 M20/M22 A3011 RMK AO2 SNE09 P0000 FZRANO TSNO
PABA 240232Z AUTO 27021KT 2 1/2SM BR OVC015 M20/M22 A3011 RMK AO2 SNE09 P0000 FZRANO TSNO
PABA 240216Z AUTO 26019KT 3SM BR OVC015 M20/M22 A3011 RMK AO2 SNE09 P0000 FZRANO TSNO
PABA 240152Z AUTO 26020KT 2SM -SN BR OVC015 M20/M22 A3010 RMK AO2 SLP179 P0000 T12001222 FZRANO TSNO
PABA 240141Z AUTO 26018KT 2 1/2SM -SN BR OVC017 M20/M22 A3010 RMK AO2 P0000 FZRANO TSNO
PABA 240052Z AUTO 27016KT 5SM -SN BR OVC021 M21/M23 A3009 RMK AO2 SNB51 SLP175 P0000 T12061228 FZRANO TSNO
PABA 240016Z AUTO 27018KT 4SM BR SCT013 OVC021 M20/M22 A3008 RMK AO2 FZRANO TSNO
PABA 232352Z AUTO 27018KT 8SM BKN011 OVC021 M20/M22 A3008 RMK AO2 SNB27E42 SLP172 P0000 60000 T12001222 11200 21222 51011 FZRANO TSNO
PABA 232328Z AUTO 27015KT 5SM -SN BR OVC017 M20/M22 A3008 RMK AO2 SNB27 P0000 FZRANO TSNO
PABA 232323Z AUTO 27015KT 5SM BR BKN014 OVC019 M20/M22 A3008 RMK AO2 FZRANO TSNO
PABA 232317Z AUTO 27019KT 5SM BR FEW010 OVC015 M20/M22 A3008 RMK AO2 FZRANO TSNO
PABA 232300Z AUTO 27017KT 3SM BR OVC010 M20/M22 A3007 RMK AO2 FZRANO TSNO
PABA 232252Z AUTO 28019KT 2SM BR OVC010 M20/M22 A3007 RMK AO2 SLP167 T12001222 FZRANO TSNO
PABA 232249Z AUTO 27018KT 2SM BR OVC010 M20/M22 A3007 RMK AO2 FZRANO TSNO
PABA 232237Z AUTO 27018KT 1 3/4SM BR OVC010 M20/M22 A3006 RMK AO2 FZRANO TSNO
PABA 232152Z AUTO 27020KT 6SM BR OVC010 M20/M22 A3005 RMK AO2 CIG 009V013 SLP161 T12001222 FZRANO TSNO
PABA 232121Z AUTO 28018KT 5SM BR OVC014 M20/M22 A3004 RMK AO2 FZRANO TSNO
PABA 232052Z AUTO 27020KT 4SM BR OVC016 M20/M22 A3003 RMK AO2 SLP153 60000 T12001222 51018 FZRANO TSNO
PABA 231952Z AUTO 28015KT 7SM OVC020 M21/M23 A3001 RMK AO2 SLP149 T12111233 FZRANO TSNO
PABA 231932Z AUTO 27014KT 9SM BKN022 M22/M24 A3000 RMK AO2 FZRANO TSNO
PABA 231852Z AUTO 28016KT 10SM BKN085 M22/M24 A2999 RMK AO2 SNE16 SLP140 P0000 T12171244 FZRANO TSNO
PABA 231752Z AUTO 28018KT 6SM -SN BR OVC085 M21/M23 A2997 RMK AO2 SNB43 SLP135 P0000 60000 T12111233 11183 21211 53018 FZRANO TSNO
PABA 231652Z AUTO 28020KT 5SM BR OVC085 M21/M23 A2995 RMK AO2 SNE15B33E47 SLP127 P0000 T12061228 FZRANO TSNO
PABA 231552Z AUTO 27021KT 4SM -SN BR OVC085 M19/M22 A2993 RMK AO2 SLP121 P0000 T11941217 FZRANO TSNO
PABA 231452Z AUTO 28016KT 4SM -SN BR BKN037 OVC085 M18/M21 A2992 RMK AO2 SNB27 SLP117 P0000 60000 T11831206 53013 FZRANO TSNO